sensor_id;sensor_type;location;lat;lon;timestamp;pressure;altitude;pressure_sealevel;temperature;humidity
15634;BME280;14654;48.898;8.308;2022-12-07T00:02:21;100473.00;;;3.96;100.00
15634;BME280;14654;48.898;8.308;2022-12-07T00:04:48;100465.31;;;3.94;100.00
15634;BME280;14654;48.898;8.308;2022-12-07T00:07:14;100461.88;;;3.94;100.00
15634;BME280;14654;48.898;8.308;2022-12-07T00:09:39;100466.13;;;3.93;100.00
15634;BME280;14654;48.898;8.308;2022-12-07T00:12:07;100472.09;;;3.94;100.00
15634;BME280;14654;48.898;8.308;2022-12-07T00:14:32;100465.31;;;3.94;100.00
15634;BME280;14654;48.898;8.308;2022-12-07T00:16:58;100461.88;;;3.94;100.00
15634;BME280;14654;48.898;8.308;2022-12-07T00:19:23;100466.13;;;3.92;100.00
15634;BME280;14654;48.898;8.308;2022-12-07T00:21:49;100460.13;;;3.91;100.00
15634;BME280;14654;48.898;8.308;2022-12-07T00:24:14;100465.22;;;3.91;100.00
15634;BME280;14654;48.898;8.308;2022-12-07T00:26:41;100463.50;;;3.90;100.00
15634;BME280;14654;48.898;8.308;2022-12-07T00:29:19;100462.66;;;3.91;100.00
15634;BME280;14654;48.898;8.308;2022-12-07T00:31:45;100462.66;;;3.91;100.00
15634;BME280;14654;48.898;8.308;2022-12-07T00:34:14;100466.94;;;3.91;100.00
15634;BME280;14654;48.898;8.308;2022-12-07T00:36:40;100458.38;;;3.89;100.00
15634;BME280;14654;48.898;8.308;2022-12-07T00:39:06;100466.88;;;3.89;100.00
15634;BME280;14654;48.898;8.308;2022-12-07T00:41:31;100461.75;;;3.88;100.00
15634;BME280;14654;48.898;8.308;2022-12-07T00:43:57;100457.47;;;3.88;100.00
15634;BME280;14654;48.898;8.308;2022-12-07T00:46:22;100464.31;;;3.88;100.00
15634;BME280;14654;48.898;8.308;2022-12-07T00:48:49;100456.63;;;3.88;100.00
15634;BME280;14654;48.898;8.308;2022-12-07T00:51:16;100460.91;;;3.89;100.00
15634;BME280;14654;48.898;8.308;2022-12-07T00:53:43;100461.78;;;3.89;100.00
15634;BME280;14654;48.898;8.308;2022-12-07T00:56:14;100460.91;;;3.89;100.00
15634;BME280;14654;48.898;8.308;2022-12-07T00:58:39;100454.09;;;3.89;100.00
15634;BME280;14654;48.898;8.308;2022-12-07T01:01:06;100450.69;;;3.89;100.00
15634;BME280;14654;48.898;8.308;2022-12-07T01:03:32;100453.19;;;3.87;100.00
15634;BME280;14654;48.898;8.308;2022-12-07T01:05:58;100464.31;;;3.88;100.00
15634;BME280;14654;48.898;8.308;2022-12-07T01:08:25;100454.06;;;3.88;100.00
15634;BME280;14654;48.898;8.308;2022-12-07T01:11:03;100460.03;;;3.88;100.00
15634;BME280;14654;48.898;8.308;2022-12-07T01:13:29;100459.13;;;3.85;100.00
15634;BME280;14654;48.898;8.308;2022-12-07T01:15:59;100455.72;;;3.86;100.00
15634;BME280;14654;48.898;8.308;2022-12-07T01:18:27;100456.56;;;3.85;100.00
15634;BME280;14654;48.898;8.308;2022-12-07T01:23:24;100465.97;;;3.86;100.00
15634;BME280;14654;48.898;8.308;2022-12-07T01:25:55;100460.84;;;3.86;100.00
15634;BME280;14654;48.898;8.308;2022-12-07T01:28:20;100465.94;;;3.84;100.00
15634;BME280;14654;48.898;8.308;2022-12-07T01:33:22;100468.50;;;3.84;100.00
15634;BME280;14654;48.898;8.308;2022-12-07T01:35:47;100470.19;;;3.84;100.00
15634;BME280;14654;48.898;8.308;2022-12-07T01:38:12;100472.81;;;3.85;100.00
15634;BME280;14654;48.898;8.308;2022-12-07T01:40:38;100465.06;;;3.84;100.00
15634;BME280;14654;48.898;8.308;2022-12-07T01:43:11;100481.31;;;3.84;100.00
15634;BME280;14654;48.898;8.308;2022-12-07T01:45:40;100469.34;;;3.83;100.00
15634;BME280;14654;48.898;8.308;2022-12-07T01:48:07;100471.00;;;3.83;100.00
15634;BME280;14654;48.898;8.308;2022-12-07T01:50:35;100472.72;;;3.82;100.00
15634;BME280;14654;48.898;8.308;2022-12-07T01:53:02;100460.75;;;3.81;100.00
15634;BME280;14654;48.898;8.308;2022-12-07T01:55:29;100465.00;;;3.80;100.00
15634;BME280;14654;48.898;8.308;2022-12-07T01:57:55;100465.00;;;3.80;100.00
15634;BME280;14654;48.898;8.308;2022-12-07T02:00:21;100466.66;;;3.78;100.00
15634;BME280;14654;48.898;8.308;2022-12-07T02:02:57;100469.19;;;3.77;100.00
15634;BME280;14654;48.898;8.308;2022-12-07T02:05:25;100466.53;;;3.72;100.00
15634;BME280;14654;48.898;8.308;2022-12-07T02:07:53;100468.19;;;3.70;100.00
15634;BME280;14654;48.898;8.308;2022-12-07T02:10:31;100466.38;;;3.64;100.00
15634;BME280;14654;48.898;8.308;2022-12-07T02:13:10;100458.59;;;3.60;100.00
15634;BME280;14654;48.898;8.308;2022-12-07T02:18:38;100455.97;;;3.58;100.00
15634;BME280;14654;48.898;8.308;2022-12-07T02:27:18;100438.03;;;3.57;100.00
15634;BME280;14654;48.898;8.308;2022-12-07T02:32:34;100439.69;;;3.53;100.00
15634;BME280;14654;48.898;8.308;2022-12-07T02:35:11;100432.00;;;3.53;100.00
15634;BME280;14654;48.898;8.308;2022-12-07T02:37:43;100435.41;;;3.52;100.00
15634;BME280;14654;48.898;8.308;2022-12-07T02:40:19;100440.50;;;3.52;100.00
15634;BME280;14654;48.898;8.308;2022-12-07T02:42:50;100441.34;;;3.51;100.00
15634;BME280;14654;48.898;8.308;2022-12-07T02:45:19;100443.00;;;3.50;100.00
15634;BME280;14654;48.898;8.308;2022-12-07T02:47:48;100441.34;;;3.51;100.00
15634;BME280;14654;48.898;8.308;2022-12-07T02:50:18;100449.88;;;3.51;100.00
15634;BME280;14654;48.898;8.308;2022-12-07T02:52:44;100444.81;;;3.53;100.00
15634;BME280;14654;48.898;8.308;2022-12-07T02:55:10;100452.50;;;3.55;100.00
15634;BME280;14654;48.898;8.308;2022-12-07T02:58:19;100455.97;;;3.57;100.00
15634;BME280;14654;48.898;8.308;2022-12-07T03:00:52;100442.28;;;3.56;100.00
15634;BME280;14654;48.898;8.308;2022-12-07T03:03:18;100435.50;;;3.57;100.00
15634;BME280;14654;48.898;8.308;2022-12-07T03:05:47;100430.38;;;3.57;100.00
15634;BME280;14654;48.898;8.308;2022-12-07T03:08:43;100435.50;;;3.57;100.00
15634;BME280;14654;48.898;8.308;2022-12-07T03:11:10;100438.91;;;3.57;100.00
15634;BME280;14654;48.898;8.308;2022-12-07T03:13:54;100441.50;;;3.59;100.00
15634;BME280;14654;48.898;8.308;2022-12-07T03:16:28;100442.34;;;3.59;100.00
15634;BME280;14654;48.898;8.308;2022-12-07T03:19:07;100444.16;;;3.62;100.00
15634;BME280;14654;48.898;8.308;2022-12-07T03:21:57;100447.56;;;3.64;100.00
15634;BME280;14654;48.898;8.308;2022-12-07T03:24:29;100436.56;;;3.66;100.00
15634;BME280;14654;48.898;8.308;2022-12-07T03:27:03;100436.50;;;3.65;100.00
15634;BME280;14654;48.898;8.308;2022-12-07T03:29:40;100426.25;;;3.65;100.00
15634;BME280;14654;48.898;8.308;2022-12-07T03:35:40;100416.03;;;3.65;100.00
15634;BME280;14654;48.898;8.308;2022-12-07T03:38:15;100424.59;;;3.65;100.00
15634;BME280;14654;48.898;8.308;2022-12-07T03:40:58;100429.72;;;3.65;100.00
15634;BME280;14654;48.898;8.308;2022-12-07T03:43:25;100413.44;;;3.63;100.00
15634;BME280;14654;48.898;8.308;2022-12-07T03:48:41;100410.47;;;3.45;100.00
15634;BME280;14654;48.898;8.308;2022-12-07T03:51:38;100405.84;;;3.27;100.00
15634;BME280;14654;48.898;8.308;2022-12-07T03:54:19;100413.06;;;3.08;100.00
15634;BME280;14654;48.898;8.308;2022-12-07T03:56:48;100410.16;;;2.93;100.00
15634;BME280;14654;48.898;8.308;2022-12-07T03:59:15;100420.94;;;2.81;100.00
15634;BME280;14654;48.898;8.308;2022-12-07T04:01:43;100418.97;;;2.70;100.00
15634;BME280;14654;48.898;8.308;2022-12-07T04:04:09;100413.66;;;2.63;100.00
15634;BME280;14654;48.898;8.308;2022-12-07T04:06:34;100414.41;;;2.58;100.00
15634;BME280;14654;48.898;8.308;2022-12-07T04:09:00;100416.91;;;2.55;100.00
15634;BME280;14654;48.898;8.308;2022-12-07T04:11:25;100411.81;;;2.55;100.00
15634;BME280;14654;48.898;8.308;2022-12-07T04:13:50;100410.06;;;2.54;100.00
15634;BME280;14654;48.898;8.308;2022-12-07T04:16:34;100422.84;;;2.54;100.00
15634;BME280;14654;48.898;8.308;2022-12-07T04:19:00;100427.88;;;2.53;100.00
15634;BME280;14654;48.898;8.308;2022-12-07T04:21:25;100422.88;;;2.56;100.00
15634;BME280;14654;48.898;8.308;2022-12-07T04:23:50;100422.03;;;2.57;100.00
15634;BME280;14654;48.898;8.308;2022-12-07T04:26:16;100416.13;;;2.59;100.00
15634;BME280;14654;48.898;8.308;2022-12-07T04:28:41;100419.69;;;2.65;100.00
15634;BME280;14654;48.898;8.308;2022-12-07T04:31:06;100412.94;;;2.68;100.00
15634;BME280;14654;48.898;8.308;2022-12-07T04:33:32;100404.53;;;2.71;100.00
15634;BME280;14654;48.898;8.308;2022-12-07T04:35:57;100409.75;;;2.76;100.00
15634;BME280;14654;48.898;8.308;2022-12-07T04:38:22;100414.06;;;2.78;100.00
15634;BME280;14654;48.898;8.308;2022-12-07T04:40:48;100411.59;;;2.81;100.00
15634;BME280;14654;48.898;8.308;2022-12-07T04:43:13;100414.22;;;2.84;100.00
15634;BME280;14654;48.898;8.308;2022-12-07T04:45:38;100412.59;;;2.88;100.00
15634;BME280;14654;48.898;8.308;2022-12-07T04:48:04;100401.56;;;2.90;100.00
15634;BME280;14654;48.898;8.308;2022-12-07T04:50:29;100405.91;;;2.93;100.00
15634;BME280;14654;48.898;8.308;2022-12-07T04:52:54;100410.22;;;2.96;100.00
15634;BME280;14654;48.898;8.308;2022-12-07T04:55:20;100407.69;;;2.97;100.00
15634;BME280;14654;48.898;8.308;2022-12-07T04:57:45;100408.59;;;2.99;100.00
15634;BME280;14654;48.898;8.308;2022-12-07T05:00:12;100410.34;;;3.00;100.00
15634;BME280;14654;48.898;8.308;2022-12-07T05:02:37;100411.22;;;3.02;100.00
15634;BME280;14654;48.898;8.308;2022-12-07T05:05:03;100413.81;;;3.04;100.00
15634;BME280;14654;48.898;8.308;2022-12-07T05:07:28;100413.00;;;3.05;100.00
15634;BME280;14654;48.898;8.308;2022-12-07T05:09:53;100412.22;;;3.08;100.00
15634;BME280;14654;48.898;8.308;2022-12-07T05:12:18;100418.16;;;3.07;100.00
15634;BME280;14654;48.898;8.308;2022-12-07T05:14:44;100417.28;;;3.06;100.00
15634;BME280;14654;48.898;8.308;2022-12-07T05:17:09;100417.28;;;3.06;100.00
15634;BME280;14654;48.898;8.308;2022-12-07T05:19:36;100411.31;;;3.05;100.00
15634;BME280;14654;48.898;8.308;2022-12-07T05:22:02;100418.09;;;3.05;100.00
15634;BME280;14654;48.898;8.308;2022-12-07T05:24:27;100418.94;;;3.04;100.00
15634;BME280;14654;48.898;8.308;2022-12-07T05:26:52;100408.75;;;3.05;100.00
15634;BME280;14654;48.898;8.308;2022-12-07T05:29:18;100403.63;;;3.05;100.00
15634;BME280;14654;48.898;8.308;2022-12-07T05:31:44;100415.53;;;3.05;100.00
15634;BME280;14654;48.898;8.308;2022-12-07T05:34:10;100411.31;;;3.05;100.00
15634;BME280;14654;48.898;8.308;2022-12-07T05:36:35;100403.63;;;3.05;100.00
15634;BME280;14654;48.898;8.308;2022-12-07T05:39:01;100413.81;;;3.04;100.00
15634;BME280;14654;48.898;8.308;2022-12-07T05:41:26;100409.59;;;3.04;100.00
15634;BME280;14654;48.898;8.308;2022-12-07T05:44:10;100412.13;;;3.04;100.00
15634;BME280;14654;48.898;8.308;2022-12-07T05:46:35;100413.88;;;3.05;100.00
15634;BME280;14654;48.898;8.308;2022-12-07T05:49:02;100416.44;;;3.05;100.00
15634;BME280;14654;48.898;8.308;2022-12-07T05:51:27;100417.28;;;3.06;100.00
15634;BME280;14654;48.898;8.308;2022-12-07T05:53:53;100412.16;;;3.06;100.00
15634;BME280;14654;48.898;8.308;2022-12-07T05:56:18;100403.63;;;3.05;100.00
15634;BME280;14654;48.898;8.308;2022-12-07T05:58:44;100406.19;;;3.05;100.00
15634;BME280;14654;48.898;8.308;2022-12-07T06:01:41;100414.69;;;3.04;100.00
15634;BME280;14654;48.898;8.308;2022-12-07T06:04:07;100417.25;;;3.04;100.00
15634;BME280;14654;48.898;8.308;2022-12-07T06:06:32;100417.28;;;3.06;100.00
15634;BME280;14654;48.898;8.308;2022-12-07T06:08:58;100419.00;;;3.07;100.00
15634;BME280;14654;48.898;8.308;2022-12-07T06:11:23;100419.00;;;3.07;100.00
15634;BME280;14654;48.898;8.308;2022-12-07T06:14:07;100414.69;;;3.04;100.00
15634;BME280;14654;48.898;8.308;2022-12-07T06:16:32;100415.59;;;3.07;100.00
15634;BME280;14654;48.898;8.308;2022-12-07T06:18:58;100416.44;;;3.05;100.00
15634;BME280;14654;48.898;8.308;2022-12-07T06:21:23;100418.97;;;3.05;100.00
15634;BME280;14654;48.898;8.308;2022-12-07T06:23:50;100416.44;;;3.05;100.00
15634;BME280;14654;48.898;8.308;2022-12-07T06:26:16;100416.38;;;3.04;100.00
15634;BME280;14654;48.898;8.308;2022-12-07T06:28:41;100410.41;;;3.03;100.00
15634;BME280;14654;48.898;8.308;2022-12-07T06:31:07;100416.31;;;3.01;100.00
15634;BME280;14654;48.898;8.308;2022-12-07T06:33:32;100421.38;;;2.99;100.00
15634;BME280;14654;48.898;8.308;2022-12-07T06:35:58;100428.16;;;2.97;100.00
15634;BME280;14654;48.898;8.308;2022-12-07T06:38:23;100429.03;;;2.98;100.00
15634;BME280;14654;48.898;8.308;2022-12-07T06:40:48;100422.19;;;2.97;100.00
15634;BME280;14654;48.898;8.308;2022-12-07T06:43:14;100422.19;;;2.97;100.00
15634;BME280;14654;48.898;8.308;2022-12-07T06:45:41;100430.69;;;2.97;100.00
15634;BME280;14654;48.898;8.308;2022-12-07T06:48:06;100430.69;;;2.97;100.00
15634;BME280;14654;48.898;8.308;2022-12-07T06:50:32;100437.53;;;2.98;100.00
15634;BME280;14654;48.898;8.308;2022-12-07T06:52:57;100431.59;;;2.98;100.00
15634;BME280;14654;48.898;8.308;2022-12-07T06:55:22;100429.03;;;2.98;100.00
15634;BME280;14654;48.898;8.308;2022-12-07T06:57:48;100422.22;;;2.98;100.00
15634;BME280;14654;48.898;8.308;2022-12-07T07:00:14;100425.59;;;2.97;100.00
15634;BME280;14654;48.898;8.308;2022-12-07T07:02:39;100423.84;;;2.96;100.00
15634;BME280;14654;48.898;8.308;2022-12-07T07:05:05;100423.84;;;2.96;100.00
15634;BME280;14654;48.898;8.308;2022-12-07T07:07:30;100425.59;;;2.97;100.00
15634;BME280;14654;48.898;8.308;2022-12-07T07:09:55;100423.09;;;2.99;100.00
15634;BME280;14654;48.898;8.308;2022-12-07T07:12:21;100427.31;;;2.98;100.00
15634;BME280;14654;48.898;8.308;2022-12-07T07:14:46;100430.75;;;2.99;100.00
15634;BME280;14654;48.898;8.308;2022-12-07T07:17:12;100434.22;;;3.01;100.00
15634;BME280;14654;48.898;8.308;2022-12-07T07:19:37;100435.97;;;3.03;100.00
15634;BME280;14654;48.898;8.308;2022-12-07T07:22:03;100428.34;;;3.05;100.00
15634;BME280;14654;48.898;8.308;2022-12-07T07:24:29;100425.84;;;3.07;100.00
15634;BME280;14654;48.898;8.308;2022-12-07T07:26:54;100429.28;;;3.09;100.00
15634;BME280;14654;48.898;8.308;2022-12-07T07:29:20;100430.16;;;3.11;100.00
15634;BME280;14654;48.898;8.308;2022-12-07T07:31:45;100438.81;;;3.14;100.00
15634;BME280;14654;48.898;8.308;2022-12-07T07:34:10;100433.72;;;3.16;100.00
15634;BME280;14654;48.898;8.308;2022-12-07T07:36:36;100439.75;;;3.19;100.00
15634;BME280;14654;48.898;8.308;2022-12-07T07:39:01;100438.09;;;3.22;100.00
15634;BME280;14654;48.898;8.308;2022-12-07T07:41:27;100439.06;;;3.25;100.00
15634;BME280;14654;48.898;8.308;2022-12-07T07:43:52;100440.84;;;3.29;100.00
15634;BME280;14654;48.898;8.308;2022-12-07T07:46:17;100440.06;;;3.32;100.00
15634;BME280;14654;48.898;8.308;2022-12-07T07:48:42;100445.22;;;3.35;100.00
15634;BME280;14654;48.898;8.308;2022-12-07T07:51:08;100454.72;;;3.39;100.00
15634;BME280;14654;48.898;8.308;2022-12-07T07:53:34;100458.25;;;3.44;100.00
15634;BME280;14654;48.898;8.308;2022-12-07T07:55:59;100457.41;;;3.45;100.00
15634;BME280;14654;48.898;8.308;2022-12-07T07:58:24;100456.63;;;3.49;100.00
15634;BME280;14654;48.898;8.308;2022-12-07T08:00:50;100453.31;;;3.52;100.00
15634;BME280;14654;48.898;8.308;2022-12-07T08:03:16;100452.50;;;3.55;100.00
15634;BME280;14654;48.898;8.308;2022-12-07T08:05:41;100446.63;;;3.59;100.00
15634;BME280;14654;48.898;8.308;2022-12-07T08:08:06;100453.56;;;3.63;100.00
15634;BME280;14654;48.898;8.308;2022-12-07T08:10:32;100452.75;;;3.65;100.00
15634;BME280;14654;48.898;8.308;2022-12-07T08:12:58;100451.09;;;3.68;100.00
15634;BME280;14654;48.898;8.308;2022-12-07T08:15:37;100459.66;;;3.70;100.00
15634;BME280;14654;48.898;8.308;2022-12-07T08:18:03;100454.56;;;3.71;100.00
15634;BME280;14654;48.898;8.308;2022-12-07T08:20:33;100461.41;;;3.72;100.00
15634;BME280;14654;48.898;8.308;2022-12-07T08:22:59;100458.03;;;3.73;100.00
15634;BME280;14654;48.898;8.308;2022-12-07T08:25:24;100464.06;;;3.77;100.00
15634;BME280;14654;48.898;8.308;2022-12-07T08:27:50;100462.44;;;3.80;100.00
15634;BME280;14654;48.898;8.308;2022-12-07T08:30:16;100466.72;;;3.81;100.00
15634;BME280;14654;48.898;8.308;2022-12-07T08:32:41;100465.03;;;3.82;100.00
15634;BME280;14654;48.898;8.308;2022-12-07T08:35:09;100461.66;;;3.83;100.00
15634;BME280;14654;48.898;8.308;2022-12-07T08:37:35;100471.09;;;3.86;100.00
15634;BME280;14654;48.898;8.308;2022-12-07T08:40:00;100470.28;;;3.88;100.00
15634;BME280;14654;48.898;8.308;2022-12-07T08:42:26;100473.75;;;3.90;100.00
15634;BME280;14654;48.898;8.308;2022-12-07T08:44:56;100472.06;;;3.91;100.00
15634;BME280;14654;48.898;8.308;2022-12-07T08:47:23;100465.28;;;3.93;100.00
15634;BME280;14654;48.898;8.308;2022-12-07T08:49:49;100461.88;;;3.94;100.00
15634;BME280;14654;48.898;8.308;2022-12-07T08:52:17;100461.88;;;3.94;100.00
15634;BME280;14654;48.898;8.308;2022-12-07T08:54:43;100473.00;;;3.96;100.00
15634;BME280;14654;48.898;8.308;2022-12-07T08:57:09;100464.56;;;4.00;100.00
15634;BME280;14654;48.898;8.308;2022-12-07T08:59:36;100468.03;;;4.04;100.00
15634;BME280;14654;48.898;8.308;2022-12-07T09:02:02;100474.13;;;4.07;100.00
15634;BME280;14654;48.898;8.308;2022-12-07T09:04:27;100475.81;;;4.08;100.00
15634;BME280;14654;48.898;8.308;2022-12-07T09:06:54;100478.38;;;4.08;100.00
15634;BME280;14654;48.898;8.308;2022-12-07T09:09:19;100463.88;;;4.07;100.00
15634;BME280;14654;48.898;8.308;2022-12-07T09:11:44;100469.00;;;4.09;100.00
15634;BME280;14654;48.898;8.308;2022-12-07T09:14:10;100475.81;;;4.08;100.00
15634;BME280;14654;48.898;8.308;2022-12-07T09:16:37;100477.59;;;4.11;100.00
15634;BME280;14654;48.898;8.308;2022-12-07T09:19:03;100474.22;;;4.14;100.00
15634;BME280;14654;48.898;8.308;2022-12-07T09:21:29;100472.56;;;4.16;100.00
15634;BME280;14654;48.898;8.308;2022-12-07T09:23:54;100475.97;;;4.16;100.00
15634;BME280;14654;48.898;8.308;2022-12-07T09:26:20;100468.28;;;4.16;100.00
15634;BME280;14654;48.898;8.308;2022-12-07T09:28:45;100477.69;;;4.17;100.00
15634;BME280;14654;48.898;8.308;2022-12-07T09:31:10;100470.06;;;4.19;100.00
15634;BME280;14654;48.898;8.308;2022-12-07T09:33:36;100470.97;;;4.22;100.00
15634;BME280;14654;48.898;8.308;2022-12-07T09:36:03;100477.00;;;4.23;100.00
15634;BME280;14654;48.898;8.308;2022-12-07T09:38:28;100479.59;;;4.26;100.00
15634;BME280;14654;48.898;8.308;2022-12-07T09:40:55;100471.13;;;4.29;100.00
15634;BME280;14654;48.898;8.308;2022-12-07T09:43:22;100474.53;;;4.29;100.00
15634;BME280;14654;48.898;8.308;2022-12-07T09:45:51;100468.56;;;4.29;100.00
15634;BME280;14654;48.898;8.308;2022-12-07T09:48:38;100458.38;;;4.33;100.00
15634;BME280;14654;48.898;8.308;2022-12-07T09:51:18;100454.22;;;4.38;100.00
15634;BME280;14654;48.898;8.308;2022-12-07T09:53:46;100454.31;;;4.43;100.00
15634;BME280;14654;48.898;8.308;2022-12-07T09:56:17;100456.94;;;4.46;100.00
15634;BME280;14654;48.898;8.308;2022-12-07T09:58:43;100459.50;;;4.48;100.00
15634;BME280;14654;48.898;8.308;2022-12-07T10:01:14;100457.81;;;4.48;100.00
15634;BME280;14654;48.898;8.308;2022-12-07T10:03:45;100462.97;;;4.50;100.00
15634;BME280;14654;48.898;8.308;2022-12-07T10:06:12;100456.13;;;4.50;100.00
15634;BME280;14654;48.898;8.308;2022-12-07T10:08:38;100449.34;;;4.52;100.00
15634;BME280;14654;48.898;8.308;2022-12-07T10:11:03;100450.25;;;4.56;100.00
15634;BME280;14654;48.898;8.308;2022-12-07T10:13:40;100446.16;;;4.64;100.00
15634;BME280;14654;48.898;8.308;2022-12-07T10:16:07;100449.69;;;4.71;100.00
15634;BME280;14654;48.898;8.308;2022-12-07T10:18:53;100438.69;;;4.78;100.00
15634;BME280;14654;48.898;8.308;2022-12-07T10:21:22;100446.50;;;4.86;100.00
15634;BME280;14654;48.898;8.308;2022-12-07T10:26:32;100433.09;;;5.02;100.00
15634;BME280;14654;48.898;8.308;2022-12-07T10:28:59;100440.00;;;5.07;100.00
15634;BME280;14654;48.898;8.308;2022-12-07T10:31:26;100441.75;;;5.09;100.00
15634;BME280;14654;48.898;8.308;2022-12-07T10:33:55;100445.22;;;5.11;100.00
15634;BME280;14654;48.898;8.308;2022-12-07T10:36:33;100446.16;;;5.16;100.00
15634;BME280;14654;48.898;8.308;2022-12-07T10:39:02;100441.09;;;5.21;100.00
15634;BME280;14654;48.898;8.308;2022-12-07T10:41:28;100429.28;;;5.31;100.00
15634;BME280;14654;48.898;8.308;2022-12-07T10:43:55;100432.78;;;5.39;100.00
15634;BME280;14654;48.898;8.308;2022-12-07T10:58:12;100424.56;;;5.62;100.00
15634;BME280;14654;48.898;8.308;2022-12-07T11:00:50;100415.19;;;5.65;100.00
15634;BME280;14654;48.898;8.308;2022-12-07T11:05:59;100412.63;;;5.65;100.00
15634;BME280;14654;48.898;8.308;2022-12-07T11:09:00;100409.19;;;5.63;100.00
15634;BME280;14654;48.898;8.308;2022-12-07T11:11:36;100402.31;;;5.62;100.00
15634;BME280;14654;48.898;8.308;2022-12-07T11:14:13;100399.75;;;5.61;100.00
15634;BME280;14654;48.898;8.308;2022-12-07T11:16:56;100392.88;;;5.60;100.00
15634;BME280;14654;48.898;8.308;2022-12-07T11:19:32;100394.66;;;5.64;100.00
15634;BME280;14654;48.898;8.308;2022-12-07T11:22:13;100387.00;;;5.69;100.00
15634;BME280;14654;48.898;8.308;2022-12-07T11:30:10;100381.16;;;5.80;100.00
15634;BME280;14654;48.898;8.308;2022-12-07T11:33:20;100371.72;;;5.79;100.00
15634;BME280;14654;48.898;8.308;2022-12-07T11:38:20;100373.47;;;5.80;100.00
15634;BME280;14654;48.898;8.308;2022-12-07T11:40:52;100369.16;;;5.79;100.00
15634;BME280;14654;48.898;8.308;2022-12-07T11:43:50;100369.97;;;5.75;100.00
15634;BME280;14654;48.898;8.308;2022-12-07T11:46:18;100366.50;;;5.72;100.00
15634;BME280;14654;48.898;8.308;2022-12-07T11:51:11;100366.59;;;5.81;100.00
15634;BME280;14654;48.898;8.308;2022-12-07T12:01:21;100352.06;;;5.85;100.00
15634;BME280;14654;48.898;8.308;2022-12-07T12:03:53;100355.53;;;5.85;100.00
15634;BME280;14654;48.898;8.308;2022-12-07T12:06:21;100349.50;;;5.85;100.00
15634;BME280;14654;48.898;8.308;2022-12-07T12:09:00;100345.25;;;5.85;100.00
15634;BME280;14654;48.898;8.308;2022-12-07T12:14:33;100342.69;;;5.85;100.00
15634;BME280;14654;48.898;8.308;2022-12-07T12:19:58;100343.53;;;5.86;100.00
15634;BME280;14654;48.898;8.308;2022-12-07T12:22:33;100337.56;;;5.85;100.00
15634;BME280;14654;48.898;8.308;2022-12-07T12:25:04;100344.41;;;5.88;100.00
15634;BME280;14654;48.898;8.308;2022-12-07T12:27:33;100343.63;;;5.92;100.00
15634;BME280;14654;48.898;8.308;2022-12-07T12:30:03;100337.63;;;5.93;100.00
15634;BME280;14654;48.898;8.308;2022-12-07T12:32:40;100338.47;;;5.92;100.00
15634;BME280;14654;48.898;8.308;2022-12-07T12:37:54;100335.81;;;5.84;100.00
15634;BME280;14654;48.898;8.308;2022-12-07T12:47:55;100327.09;;;5.70;100.00
15634;BME280;14654;48.898;8.308;2022-12-07T12:50:37;100326.22;;;5.66;100.00
15634;BME280;14654;48.898;8.308;2022-12-07T12:53:16;100321.84;;;5.59;100.00
15634;BME280;14654;48.898;8.308;2022-12-07T12:55:53;100322.63;;;5.52;100.00
15634;BME280;14654;48.898;8.308;2022-12-07T12:58:30;100316.56;;;5.46;100.00
15634;BME280;14654;48.898;8.308;2022-12-07T13:03:59;100307.88;;;5.35;100.00
15634;BME280;14654;48.898;8.308;2022-12-07T13:08:51;100309.50;;;5.31;100.00
15634;BME280;14654;48.898;8.308;2022-12-07T13:11:28;100307.81;;;5.32;100.00
15634;BME280;14654;48.898;8.308;2022-12-07T13:16:58;100301.91;;;5.38;100.00
15634;BME280;14654;48.898;8.308;2022-12-07T13:19:53;100298.53;;;5.43;100.00
15634;BME280;14654;48.898;8.308;2022-12-07T13:27:25;100296.03;;;5.46;100.00
15634;BME280;14654;48.898;8.308;2022-12-07T13:29:51;100294.28;;;5.47;100.00
15634;BME280;14654;48.898;8.308;2022-12-07T13:32:24;100281.50;;;5.48;100.00
15634;BME280;14654;48.898;8.308;2022-12-07T13:34:50;100291.72;;;5.47;100.00
15634;BME280;14654;48.898;8.308;2022-12-07T13:39:49;100288.28;;;5.42;100.00
15634;BME280;14654;48.898;8.308;2022-12-07T13:42:24;100289.97;;;5.41;100.00
15634;BME280;14654;48.898;8.308;2022-12-07T13:44:50;100291.69;;;5.41;100.00
15634;BME280;14654;48.898;8.308;2022-12-07T13:47:39;100281.38;;;5.39;100.00
15634;BME280;14654;48.898;8.308;2022-12-07T13:50:28;100279.66;;;5.38;100.00
15634;BME280;14654;48.898;8.308;2022-12-07T13:52:58;100278.78;;;5.36;100.00
15634;BME280;14654;48.898;8.308;2022-12-07T13:55:25;100277.91;;;5.34;100.00
15634;BME280;14654;48.898;8.308;2022-12-07T13:57:54;100277.91;;;5.34;100.00
15634;BME280;14654;48.898;8.308;2022-12-07T14:00:21;100279.59;;;5.33;100.00
15634;BME280;14654;48.898;8.308;2022-12-07T14:02:58;100278.75;;;5.33;100.00
15634;BME280;14654;48.898;8.308;2022-12-07T14:05:27;100287.28;;;5.32;100.00
15634;BME280;14654;48.898;8.308;2022-12-07T14:08:01;100282.16;;;5.32;100.00
15634;BME280;14654;48.898;8.308;2022-12-07T14:13:01;100283.00;;;5.29;100.00
15634;BME280;14654;48.898;8.308;2022-12-07T14:15:33;100274.41;;;5.29;100.00
15634;BME280;14654;48.898;8.308;2022-12-07T14:18:00;100277.81;;;5.28;100.00
15634;BME280;14654;48.898;8.308;2022-12-07T14:20:39;100280.38;;;5.26;100.00
15634;BME280;14654;48.898;8.308;2022-12-07T14:23:06;100281.19;;;5.24;100.00
15634;BME280;14654;48.898;8.308;2022-12-07T14:25:51;100273.47;;;5.22;100.00
15634;BME280;14654;48.898;8.308;2022-12-07T14:28:31;100281.16;;;5.21;100.00
15634;BME280;14654;48.898;8.308;2022-12-07T14:30:58;100279.44;;;5.19;100.00
15634;BME280;14654;48.898;8.308;2022-12-07T14:33:24;100287.97;;;5.18;100.00
15634;BME280;14654;48.898;8.308;2022-12-07T14:35:50;100287.94;;;5.17;100.00